Time;durP1;ratioP1;P1;durP2;ratioP2;P2;SDS_P1;SDS_P2;PMS_P1;PMS_P2;Temp;Humidity;BMP_temperature;BMP_pressure;BME280_temperature;BME280_humidity;BME280_pressure;Samples;Min_cycle;Max_cycle;Signal;HPM_P1;HPM_P2
2023/06/06 00:00:28;;;;;;;2.35;2.10;;;;;;;;;;5024274;28;20234;-92
2023/06/06 00:02:57;;;;;;;4.07;2.85;;;;;;;;;;5023445;28;20203;-91
2023/06/06 00:05:27;;;;;;;2.63;2.10;;;;;;;;;;5030691;28;20207;-92
2023/06/06 00:07:54;;;;;;;2.33;2.13;;;;;;;;;;5024813;28;20224;-92
2023/06/06 00:10:22;;;;;;;2.35;2.13;;;;;;;;;;5029676;28;20212;-92
2023/06/06 00:12:52;;;;;;;4.47;2.38;;;;;;;;;;5029708;28;20294;-92
2023/06/06 00:15:20;;;;;;;2.78;2.25;;;;;;;;;;5024372;28;20244;-92
2023/06/06 00:17:55;;;;;;;2.55;2.10;;;;;;;;;;5034869;28;20200;-92
2023/06/06 00:20:24;;;;;;;2.30;2.08;;;;;;;;;;5025430;28;20261;-92
2023/06/06 00:22:53;;;;;;;2.22;2.03;;;;;;;;;;5031307;28;20205;-92
2023/06/06 00:25:20;;;;;;;3.58;1.88;;;;;;;;;;5030816;28;20216;-92
2023/06/06 00:27:47;;;;;;;2.10;1.90;;;;;;;;;;5031005;28;20223;-92
2023/06/06 00:30:15;;;;;;;2.13;2.00;;;;;;;;;;5026418;28;20291;-92
2023/06/06 00:32:42;;;;;;;2.63;2.00;;;;;;;;;;5024297;28;20212;-92
2023/06/06 00:35:10;;;;;;;3.47;2.25;;;;;;;;;;5028031;28;20212;-92
2023/06/06 00:37:39;;;;;;;3.20;2.08;;;;;;;;;;5023388;28;20217;-92
2023/06/06 00:40:09;;;;;;;2.17;1.98;;;;;;;;;;5030082;28;20227;-92
2023/06/06 00:42:36;;;;;;;2.53;2.00;;;;;;;;;;5029513;28;20208;-92
2023/06/06 00:45:03;;;;;;;1.98;1.85;;;;;;;;;;5029691;28;20235;-92
2023/06/06 00:47:31;;;;;;;2.20;2.00;;;;;;;;;;5025801;28;20204;-92
2023/06/06 00:49:59;;;;;;;2.83;2.00;;;;;;;;;;5024946;28;20211;-92
2023/06/06 00:52:27;;;;;;;2.42;2.10;;;;;;;;;;5029365;28;20200;-92
2023/06/06 00:54:56;;;;;;;2.70;2.08;;;;;;;;;;5027322;28;20242;-92
2023/06/06 00:57:23;;;;;;;3.83;2.17;;;;;;;;;;5028392;28;20239;-92
2023/06/06 00:59:51;;;;;;;2.78;2.25;;;;;;;;;;5031494;28;20224;-92
2023/06/06 01:02:19;;;;;;;1.92;1.73;;;;;;;;;;5036502;28;20219;-92
2023/06/06 01:04:46;;;;;;;2.55;2.35;;;;;;;;;;5032662;28;20208;-92
2023/06/06 01:07:17;;;;;;;2.70;2.30;;;;;;;;;;5033964;28;20315;-92
2023/06/06 01:09:45;;;;;;;1.98;1.88;;;;;;;;;;5037817;28;20200;-92
2023/06/06 01:12:17;;;;;;;2.42;2.22;;;;;;;;;;5033370;28;20208;-92
2023/06/06 01:14:46;;;;;;;2.22;2.00;;;;;;;;;;5034469;28;20208;-92
2023/06/06 01:17:16;;;;;;;2.25;2.00;;;;;;;;;;5033971;28;20235;-92
2023/06/06 01:19:47;;;;;;;2.30;2.15;;;;;;;;;;5031456;28;20311;-91
2023/06/06 01:22:17;;;;;;;2.97;1.98;;;;;;;;;;5029059;28;20296;-92
2023/06/06 01:24:45;;;;;;;2.78;2.33;;;;;;;;;;5033938;28;20212;-92
2023/06/06 01:27:12;;;;;;;2.88;1.92;;;;;;;;;;5038387;28;20214;-91
2023/06/06 01:29:40;;;;;;;3.17;2.03;;;;;;;;;;5033698;28;20239;-92
2023/06/06 01:32:10;;;;;;;3.50;1.92;;;;;;;;;;5033940;28;20216;-92
2023/06/06 01:34:43;;;;;;;3.17;2.08;;;;;;;;;;5025325;28;20224;-92
2023/06/06 01:37:13;;;;;;;2.20;1.90;;;;;;;;;;5023591;28;20235;-92
2023/06/06 01:39:46;;;;;;;2.00;1.80;;;;;;;;;;5023743;28;20315;-92
2023/06/06 01:42:14;;;;;;;2.45;2.03;;;;;;;;;;5029354;28;20212;-91
2023/06/06 01:44:42;;;;;;;4.63;2.10;;;;;;;;;;5024862;28;20239;-92
2023/06/06 01:47:10;;;;;;;4.30;2.10;;;;;;;;;;5029757;28;20255;-92
2023/06/06 01:49:38;;;;;;;2.03;1.83;;;;;;;;;;5026997;28;20362;-92
2023/06/06 01:52:06;;;;;;;2.20;2.10;;;;;;;;;;5027352;28;20200;-92
2023/06/06 01:54:34;;;;;;;1.90;1.80;;;;;;;;;;5055709;28;20249;-92
2023/06/06 01:57:05;;;;;;;2.78;2.17;;;;;;;;;;5049603;28;20204;-92
2023/06/06 01:59:32;;;;;;;2.70;2.03;;;;;;;;;;5048529;28;20193;-91
2023/06/06 02:02:00;;;;;;;2.45;2.13;;;;;;;;;;5050101;28;20180;-92
2023/06/06 02:04:27;;;;;;;3.40;2.15;;;;;;;;;;5048665;28;20184;-91
2023/06/06 02:06:55;;;;;;;2.05;1.88;;;;;;;;;;5046842;28;20219;-92
2023/06/06 02:09:22;;;;;;;4.10;2.20;;;;;;;;;;5032535;28;20247;-92
2023/06/06 02:11:49;;;;;;;2.60;2.10;;;;;;;;;;5026798;28;20242;-92
2023/06/06 02:14:18;;;;;;;2.30;2.10;;;;;;;;;;5025170;28;20204;-92
2023/06/06 02:16:48;;;;;;;2.88;1.95;;;;;;;;;;5026985;28;20231;-92
2023/06/06 02:19:16;;;;;;;3.03;2.40;;;;;;;;;;5030549;28;20201;-92
2023/06/06 02:21:43;;;;;;;3.70;1.83;;;;;;;;;;5031004;28;20208;-92
2023/06/06 02:24:11;;;;;;;4.03;2.25;;;;;;;;;;5026719;28;20216;-92
2023/06/06 02:26:41;;;;;;;2.53;2.00;;;;;;;;;;5026284;28;20208;-92
2023/06/06 02:29:09;;;;;;;3.78;2.10;;;;;;;;;;5022346;28;20218;-92
2023/06/06 02:31:38;;;;;;;2.35;2.10;;;;;;;;;;5021015;28;20257;-91
2023/06/06 02:34:05;;;;;;;3.28;2.33;;;;;;;;;;5026807;28;20227;-92
2023/06/06 02:36:32;;;;;;;2.17;1.95;;;;;;;;;;5024872;28;20227;-92
2023/06/06 02:39:00;;;;;;;3.45;2.30;;;;;;;;;;5027456;28;20236;-91
2023/06/06 02:41:28;;;;;;;2.90;2.35;;;;;;;;;;5025947;28;20216;-92
2023/06/06 02:43:55;;;;;;;2.30;2.03;;;;;;;;;;5025207;28;20200;-92
2023/06/06 02:46:22;;;;;;;2.13;2.03;;;;;;;;;;5021503;28;20312;-92
2023/06/06 02:48:51;;;;;;;2.00;1.88;;;;;;;;;;5022543;28;20200;-92
2023/06/06 02:51:20;;;;;;;2.35;2.10;;;;;;;;;;5023152;28;20252;-92
2023/06/06 02:53:47;;;;;;;2.00;1.90;;;;;;;;;;5023718;28;20208;-91
2023/06/06 02:56:14;;;;;;;2.35;2.10;;;;;;;;;;5020938;28;20259;-92
2023/06/06 02:58:42;;;;;;;3.00;2.15;;;;;;;;;;5024291;28;20212;-92
2023/06/06 03:01:12;;;;;;;2.40;2.20;;;;;;;;;;5029056;28;20204;-92
2023/06/06 03:03:39;;;;;;;2.15;2.03;;;;;;;;;;5023830;28;20212;-92
2023/06/06 03:06:08;;;;;;;2.30;2.10;;;;;;;;;;5027527;28;20204;-92
2023/06/06 03:08:36;;;;;;;3.90;2.00;;;;;;;;;;5033323;28;20239;-91
2023/06/06 03:11:03;;;;;;;4.35;2.20;;;;;;;;;;5042503;28;20226;-91
2023/06/06 03:13:30;;;;;;;2.17;2.03;;;;;;;;;;5037561;28;20211;-91
2023/06/06 03:15:58;;;;;;;2.58;2.08;;;;;;;;;;5039521;28;20264;-92
2023/06/06 03:18:25;;;;;;;2.97;2.00;;;;;;;;;;5034573;28;20238;-91
2023/06/06 03:20:53;;;;;;;2.35;2.15;;;;;;;;;;5042642;28;20196;-92
2023/06/06 03:23:22;;;;;;;2.80;2.33;;;;;;;;;;5036867;28;20210;-91
2023/06/06 03:25:51;;;;;;;4.07;2.00;;;;;;;;;;5034636;28;20230;-92
2023/06/06 03:28:18;;;;;;;2.17;2.00;;;;;;;;;;5037434;28;20290;-91
2023/06/06 03:30:46;;;;;;;1.98;1.88;;;;;;;;;;5032323;28;20248;-92
2023/06/06 03:33:14;;;;;;;5.38;1.92;;;;;;;;;;5032884;28;20203;-92
2023/06/06 03:35:41;;;;;;;3.97;2.05;;;;;;;;;;5037481;28;20212;-92
2023/06/06 03:38:09;;;;;;;2.47;2.28;;;;;;;;;;5030888;28;20295;-92
2023/06/06 03:40:38;;;;;;;3.03;1.90;;;;;;;;;;5031009;28;20377;-92
2023/06/06 03:43:05;;;;;;;2.90;2.03;;;;;;;;;;5034055;28;20215;-92
2023/06/06 03:45:33;;;;;;;2.20;2.00;;;;;;;;;;5026325;28;20222;-92
2023/06/06 03:48:00;;;;;;;2.90;2.40;;;;;;;;;;5027940;28;20216;-92
2023/06/06 03:50:28;;;;;;;3.38;2.20;;;;;;;;;;5043174;28;20234;-92
2023/06/06 03:52:55;;;;;;;2.45;2.20;;;;;;;;;;5053581;28;20203;-91
2023/06/06 03:55:23;;;;;;;3.67;2.40;;;;;;;;;;5050038;28;20199;-91
2023/06/06 03:57:52;;;;;;;2.13;2.00;;;;;;;;;;5053912;28;20234;-92
2023/06/06 04:00:20;;;;;;;2.88;2.00;;;;;;;;;;5056200;28;20272;-91
2023/06/06 04:02:48;;;;;;;2.40;2.20;;;;;;;;;;5055536;28;20192;-91
2023/06/06 04:05:16;;;;;;;2.40;2.20;;;;;;;;;;5044474;28;20196;-92
2023/06/06 04:07:44;;;;;;;3.75;2.15;;;;;;;;;;5033592;28;20305;-91
2023/06/06 04:10:11;;;;;;;2.47;2.28;;;;;;;;;;5035486;28;20224;-92
2023/06/06 04:12:39;;;;;;;5.95;2.17;;;;;;;;;;5037746;28;20234;-92
2023/06/06 04:15:10;;;;;;;3.78;2.30;;;;;;;;;;5030261;28;20212;-92
2023/06/06 04:17:37;;;;;;;3.60;2.35;;;;;;;;;;5035133;28;20254;-92
2023/06/06 04:20:08;;;;;;;2.53;2.33;;;;;;;;;;5033492;28;20204;-92
2023/06/06 04:22:35;;;;;;;3.72;2.22;;;;;;;;;;5045629;28;20219;-92
2023/06/06 04:25:02;;;;;;;2.65;2.25;;;;;;;;;;5035137;28;20214;-91
2023/06/06 04:27:30;;;;;;;2.17;2.08;;;;;;;;;;5030281;28;20204;-91
2023/06/06 04:29:58;;;;;;;2.67;2.40;;;;;;;;;;5029336;28;20219;-92
2023/06/06 04:32:29;;;;;;;2.75;2.40;;;;;;;;;;5033780;28;20231;-92
2023/06/06 04:34:57;;;;;;;2.67;2.38;;;;;;;;;;5037416;28;20224;-92
2023/06/06 04:37:24;;;;;;;2.38;2.17;;;;;;;;;;5033272;28;20223;-92
2023/06/06 04:39:53;;;;;;;2.85;2.30;;;;;;;;;;5040063;28;20231;-91
2023/06/06 04:42:21;;;;;;;4.50;2.10;;;;;;;;;;5033506;28;20211;-92
2023/06/06 04:44:49;;;;;;;3.50;2.13;;;;;;;;;;5031744;28;20204;-91
2023/06/06 04:47:19;;;;;;;2.60;2.40;;;;;;;;;;5027762;28;20204;-92
2023/06/06 04:49:48;;;;;;;2.42;2.22;;;;;;;;;;5026168;28;20216;-92
2023/06/06 04:52:16;;;;;;;4.63;2.10;;;;;;;;;;5025425;28;20275;-92
2023/06/06 04:54:45;;;;;;;2.70;2.10;;;;;;;;;;5022168;28;20243;-91
2023/06/06 04:57:15;;;;;;;2.30;2.10;;;;;;;;;;5032891;28;20220;-92
2023/06/06 04:59:50;;;;;;;2.30;2.10;;;;;;;;;;5029734;28;20230;-92
2023/06/06 05:02:18;;;;;;;2.30;2.10;;;;;;;;;;5032783;28;20255;-92
2023/06/06 05:04:45;;;;;;;2.55;2.35;;;;;;;;;;5033168;28;20220;-92
2023/06/06 05:07:14;;;;;;;2.75;2.10;;;;;;;;;;5038549;28;20293;-92
2023/06/06 05:09:41;;;;;;;3.42;2.30;;;;;;;;;;5035652;28;20211;-91
2023/06/06 05:12:09;;;;;;;3.65;2.60;;;;;;;;;;5030683;28;20227;-92
2023/06/06 05:14:36;;;;;;;2.75;2.17;;;;;;;;;;5029876;28;20214;-92
2023/06/06 05:17:04;;;;;;;3.15;2.42;;;;;;;;;;5030085;28;20320;-92
2023/06/06 05:19:31;;;;;;;2.40;2.20;;;;;;;;;;5036294;28;20219;-91
2023/06/06 05:21:58;;;;;;;2.25;2.08;;;;;;;;;;5033053;28;20215;-92
2023/06/06 05:24:27;;;;;;;2.55;2.35;;;;;;;;;;5031318;28;20216;-92
2023/06/06 05:26:55;;;;;;;3.03;2.05;;;;;;;;;;5030382;28;20267;-92
2023/06/06 05:29:25;;;;;;;2.33;2.13;;;;;;;;;;5040118;28;20267;-92
2023/06/06 05:31:52;;;;;;;3.13;2.13;;;;;;;;;;5035443;28;20248;-92
2023/06/06 05:34:19;;;;;;;2.22;2.03;;;;;;;;;;5036987;28;20266;-92
2023/06/06 05:36:47;;;;;;;3.47;2.00;;;;;;;;;;5032892;28;20208;-91
2023/06/06 05:39:14;;;;;;;2.25;2.10;;;;;;;;;;5033924;28;20200;-92
2023/06/06 05:41:43;;;;;;;2.53;2.30;;;;;;;;;;5032128;28;20206;-91
2023/06/06 05:44:11;;;;;;;2.92;2.10;;;;;;;;;;5033217;28;20264;-91
2023/06/06 05:46:39;;;;;;;2.30;2.10;;;;;;;;;;5033464;28;20393;-92
2023/06/06 05:49:06;;;;;;;2.58;2.20;;;;;;;;;;5042260;28;20268;-92
2023/06/06 05:51:34;;;;;;;3.63;2.30;;;;;;;;;;5033166;28;20307;-91
2023/06/06 05:54:01;;;;;;;2.58;2.20;;;;;;;;;;5041948;28;20204;-92
2023/06/06 05:56:28;;;;;;;2.97;2.42;;;;;;;;;;5029791;28;20299;-91
2023/06/06 05:58:57;;;;;;;3.88;2.30;;;;;;;;;;5024302;28;20204;-92
2023/06/06 06:01:24;;;;;;;3.45;2.20;;;;;;;;;;5024666;28;20298;-91
2023/06/06 06:03:52;;;;;;;4.18;2.22;;;;;;;;;;5025821;28;20201;-92
2023/06/06 06:06:20;;;;;;;2.38;2.17;;;;;;;;;;5026057;28;20211;-91
2023/06/06 06:09:05;;;;;;;3.10;2.30;;;;;;;;;;5035102;28;20211;-92
2023/06/06 06:11:32;;;;;;;2.60;2.40;;;;;;;;;;5034458;28;20224;-92
2023/06/06 06:14:01;;;;;;;2.55;2.30;;;;;;;;;;5035214;28;20246;-91
2023/06/06 06:16:28;;;;;;;4.28;2.28;;;;;;;;;;5032502;28;20214;-91
2023/06/06 06:18:59;;;;;;;2.58;2.35;;;;;;;;;;5032005;28;20236;-91
2023/06/06 06:21:27;;;;;;;2.50;2.30;;;;;;;;;;5036133;28;20200;-91
2023/06/06 06:23:55;;;;;;;3.03;2.35;;;;;;;;;;5031919;28;20269;-92
2023/06/06 06:26:22;;;;;;;2.42;2.13;;;;;;;;;;5031105;28;20231;-92
2023/06/06 06:28:53;;;;;;;2.58;2.20;;;;;;;;;;5032009;28;20216;-92
2023/06/06 06:31:22;;;;;;;2.50;2.30;;;;;;;;;;5033616;28;20259;-92
2023/06/06 06:33:50;;;;;;;2.53;2.05;;;;;;;;;;5038215;28;20200;-92
2023/06/06 06:36:17;;;;;;;4.32;2.40;;;;;;;;;;5033183;28;20206;-92
2023/06/06 06:38:45;;;;;;;4.07;2.45;;;;;;;;;;5029752;28;20223;-92
2023/06/06 06:41:12;;;;;;;2.53;2.33;;;;;;;;;;5033072;28;20212;-92
2023/06/06 06:43:40;;;;;;;4.75;2.45;;;;;;;;;;5031566;28;20212;-92
2023/06/06 06:46:08;;;;;;;2.28;2.08;;;;;;;;;;5033624;28;20215;-93
2023/06/06 06:48:37;;;;;;;2.58;2.10;;;;;;;;;;5028287;28;20208;-92
2023/06/06 06:51:05;;;;;;;2.60;2.40;;;;;;;;;;5030725;28;20224;-92
2023/06/06 06:53:33;;;;;;;2.90;2.42;;;;;;;;;;5033254;28;20258;-91
2023/06/06 06:56:01;;;;;;;2.50;2.30;;;;;;;;;;5034694;28;20262;-91
2023/06/06 06:58:33;;;;;;;3.58;2.20;;;;;;;;;;5034148;28;20291;-91
2023/06/06 07:01:01;;;;;;;2.85;2.30;;;;;;;;;;5030962;28;20200;-91
2023/06/06 07:03:29;;;;;;;1.92;1.83;;;;;;;;;;5025648;28;20208;-92
2023/06/06 07:05:59;;;;;;;2.40;2.20;;;;;;;;;;5026096;28;20270;-93
2023/06/06 07:08:26;;;;;;;2.60;2.30;;;;;;;;;;5025746;28;20282;-93
2023/06/06 07:10:54;;;;;;;2.30;2.20;;;;;;;;;;5025083;28;20204;-92
2023/06/06 07:13:21;;;;;;;2.72;2.05;;;;;;;;;;5026155;28;20212;-94
2023/06/06 07:15:48;;;;;;;2.67;2.47;;;;;;;;;;5025604;28;20307;-92
2023/06/06 07:18:16;;;;;;;2.50;2.30;;;;;;;;;;5028094;28;20271;-93
2023/06/06 07:20:43;;;;;;;2.60;2.40;;;;;;;;;;5023707;28;20205;-93
2023/06/06 07:23:12;;;;;;;2.83;2.30;;;;;;;;;;5028238;28;20254;-93
2023/06/06 07:25:40;;;;;;;2.72;2.35;;;;;;;;;;5026510;28;20208;-93
2023/06/06 07:28:10;;;;;;;2.88;2.20;;;;;;;;;;5026570;28;20201;-93
2023/06/06 07:30:37;;;;;;;3.60;2.40;;;;;;;;;;5027046;28;20294;-94
2023/06/06 07:33:04;;;;;;;2.47;2.28;;;;;;;;;;5028781;28;20275;-94
2023/06/06 07:35:33;;;;;;;2.53;2.30;;;;;;;;;;5033032;28;20204;-94
2023/06/06 07:38:02;;;;;;;2.50;2.30;;;;;;;;;;5033441;28;20207;-94
2023/06/06 07:40:31;;;;;;;3.25;2.17;;;;;;;;;;5023940;28;20218;-94
2023/06/06 07:42:59;;;;;;;2.60;2.40;;;;;;;;;;5037267;28;20303;-93
2023/06/06 07:45:28;;;;;;;2.85;2.40;;;;;;;;;;5037900;28;20239;-94
2023/06/06 07:47:57;;;;;;;5.65;2.30;;;;;;;;;;5031050;28;20208;-93
2023/06/06 07:50:24;;;;;;;3.03;2.47;;;;;;;;;;5029500;28;20228;-94
2023/06/06 07:52:51;;;;;;;3.60;2.60;;;;;;;;;;5028360;28;20311;-95
2023/06/06 07:55:20;;;;;;;2.90;2.45;;;;;;;;;;5037887;28;20215;-93
2023/06/06 07:57:50;;;;;;;3.25;2.35;;;;;;;;;;5033981;28;20212;-94
2023/06/06 08:00:19;;;;;;;2.92;2.60;;;;;;;;;;5034339;28;20216;-94
2023/06/06 08:02:46;;;;;;;3.92;2.75;;;;;;;;;;5033663;28;20468;-94
2023/06/06 08:05:13;;;;;;;2.10;1.95;;;;;;;;;;5033452;28;20208;-93
2023/06/06 08:07:41;;;;;;;2.60;2.40;;;;;;;;;;5035755;28;20231;-93
2023/06/06 08:10:10;;;;;;;3.08;2.30;;;;;;;;;;5031872;28;20220;-94
2023/06/06 08:12:37;;;;;;;4.88;2.30;;;;;;;;;;5034400;28;20257;-94
2023/06/06 08:15:07;;;;;;;4.82;2.45;;;;;;;;;;5035191;28;20212;-93
2023/06/06 08:17:35;;;;;;;3.83;2.30;;;;;;;;;;5032057;28;20238;-94
2023/06/06 08:20:04;;;;;;;3.85;2.40;;;;;;;;;;5033192;28;20208;-94
2023/06/06 08:22:33;;;;;;;3.50;2.28;;;;;;;;;;5039022;28;20215;-94
2023/06/06 08:25:01;;;;;;;2.50;2.30;;;;;;;;;;5038549;28;20237;-94
2023/06/06 08:27:28;;;;;;;2.65;2.25;;;;;;;;;;5031323;28;20310;-94
2023/06/06 08:29:56;;;;;;;2.30;2.10;;;;;;;;;;5038248;28;20235;-94
2023/06/06 08:32:25;;;;;;;3.75;2.75;;;;;;;;;;5033940;28;20228;-94
2023/06/06 08:34:52;;;;;;;2.17;2.05;;;;;;;;;;5038759;28;20216;-94
2023/06/06 08:37:19;;;;;;;3.15;2.30;;;;;;;;;;5034852;28;20204;-95
2023/06/06 08:39:47;;;;;;;2.83;2.63;;;;;;;;;;5035598;28;20243;-94
2023/06/06 08:42:18;;;;;;;2.13;2.03;;;;;;;;;;5040707;28;20212;-94
2023/06/06 08:44:45;;;;;;;2.40;2.20;;;;;;;;;;5029178;28;20212;-94
2023/06/06 08:47:13;;;;;;;2.70;2.47;;;;;;;;;;5037260;28;20270;-94
2023/06/06 08:49:42;;;;;;;4.55;2.50;;;;;;;;;;5034133;28;20208;-94
2023/06/06 08:52:10;;;;;;;2.58;2.40;;;;;;;;;;5035044;28;20263;-93
2023/06/06 08:54:38;;;;;;;3.72;2.30;;;;;;;;;;5034763;28;20208;-94
2023/06/06 08:57:08;;;;;;;2.40;2.05;;;;;;;;;;5036316;28;20208;-94
2023/06/06 08:59:38;;;;;;;2.47;2.28;;;;;;;;;;5030286;28;20208;-93
2023/06/06 09:02:07;;;;;;;2.25;2.13;;;;;;;;;;5030457;28;20233;-94
2023/06/06 09:04:35;;;;;;;3.45;2.20;;;;;;;;;;5030221;28;20215;-93
2023/06/06 09:07:08;;;;;;;5.22;2.20;;;;;;;;;;5028192;28;20235;-94
2023/06/06 09:09:36;;;;;;;3.03;2.38;;;;;;;;;;5028894;28;20200;-95
2023/06/06 09:12:05;;;;;;;2.10;2.00;;;;;;;;;;5028739;28;20313;-95
2023/06/06 09:14:32;;;;;;;2.22;2.10;;;;;;;;;;5026263;28;20215;-94
2023/06/06 09:16:59;;;;;;;2.75;2.10;;;;;;;;;;5027792;28;20204;-93
2023/06/06 09:19:28;;;;;;;2.67;2.47;;;;;;;;;;5029138;28;20216;-94
2023/06/06 09:21:59;;;;;;;2.72;2.28;;;;;;;;;;5031779;28;20228;-94
2023/06/06 09:24:29;;;;;;;2.55;2.05;;;;;;;;;;5033938;28;20243;-95
2023/06/06 09:26:56;;;;;;;2.38;2.17;;;;;;;;;;5028730;28;20212;-95
2023/06/06 09:29:26;;;;;;;2.40;2.20;;;;;;;;;;5033621;28;20204;-94
2023/06/06 09:31:54;;;;;;;3.28;2.25;;;;;;;;;;5036669;28;20228;-94
2023/06/06 09:34:26;;;;;;;3.72;2.65;;;;;;;;;;5032101;28;20208;-94
2023/06/06 09:36:55;;;;;;;2.40;2.30;;;;;;;;;;5029251;28;20295;-94
2023/06/06 09:39:22;;;;;;;4.00;2.50;;;;;;;;;;5028626;28;20219;-95
2023/06/06 09:41:51;;;;;;;2.60;2.30;;;;;;;;;;5025575;28;20219;-95
2023/06/06 09:44:20;;;;;;;2.80;2.20;;;;;;;;;;5031574;28;20238;-94
2023/06/06 09:46:47;;;;;;;2.47;2.28;;;;;;;;;;5027164;28;20210;-95
2023/06/06 09:49:15;;;;;;;2.30;2.20;;;;;;;;;;5028113;28;20200;-95
2023/06/06 09:51:45;;;;;;;2.28;2.17;;;;;;;;;;5026939;28;20246;-95
2023/06/06 09:54:17;;;;;;;2.67;2.47;;;;;;;;;;5029487;28;20220;-95
2023/06/06 09:56:49;;;;;;;2.75;2.55;;;;;;;;;;5033046;28;20268;-95
2023/06/06 09:59:18;;;;;;;3.17;2.38;;;;;;;;;;5032891;28;20208;-96
2023/06/06 10:01:47;;;;;;;3.65;2.13;;;;;;;;;;5029067;28;20280;-94
2023/06/06 10:04:14;;;;;;;2.33;2.13;;;;;;;;;;5026686;28;20235;-95
2023/06/06 10:09:49;;;;;;;2.60;2.40;;;;;;;;;;5018726;28;20212;-95
2023/06/06 10:12:17;;;;;;;3.00;2.80;;;;;;;;;;5016235;28;20289;-95
2023/06/06 10:14:49;;;;;;;3.20;2.38;;;;;;;;;;5033684;28;20251;-95
2023/06/06 10:17:20;;;;;;;2.50;2.33;;;;;;;;;;5034117;28;20215;-95
2023/06/06 10:19:47;;;;;;;2.33;2.13;;;;;;;;;;5031590;28;20272;-95
2023/06/06 10:22:14;;;;;;;3.25;2.55;;;;;;;;;;5027870;28;20282;-95
2023/06/06 10:24:42;;;;;;;3.10;2.60;;;;;;;;;;5034571;28;20208;-95
2023/06/06 10:27:12;;;;;;;3.00;2.80;;;;;;;;;;5032809;28;20212;-95
2023/06/06 10:29:43;;;;;;;2.45;2.25;;;;;;;;;;5032886;28;20279;-96
2023/06/06 10:32:15;;;;;;;3.83;2.60;;;;;;;;;;5033438;28;20331;-96
2023/06/06 10:34:43;;;;;;;2.70;2.50;;;;;;;;;;5040811;28;20212;-95
2023/06/06 10:37:17;;;;;;;2.92;2.72;;;;;;;;;;5031045;28;20212;-95
2023/06/06 10:39:47;;;;;;;3.00;2.65;;;;;;;;;;5032836;28;20215;-95
2023/06/06 10:42:14;;;;;;;2.67;2.47;;;;;;;;;;5028696;28;20207;-95
2023/06/06 10:44:55;;;;;;;3.92;2.85;;;;;;;;;;5031232;28;20238;-96
2023/06/06 10:47:28;;;;;;;5.07;2.60;;;;;;;;;;5028472;28;20199;-95
2023/06/06 10:50:14;;;;;;;3.13;2.38;;;;;;;;;;5037872;28;20266;-95
2023/06/06 10:52:42;;;;;;;2.90;2.70;;;;;;;;;;5023428;28;20217;-95
2023/06/06 10:55:15;;;;;;;2.97;2.78;;;;;;;;;;5028637;28;20270;-95
2023/06/06 10:57:50;;;;;;;3.80;3.08;;;;;;;;;;5036394;28;20204;-95
2023/06/06 11:00:18;;;;;;;3.42;2.45;;;;;;;;;;5032808;28;20213;-95
2023/06/06 11:02:48;;;;;;;3.17;2.88;;;;;;;;;;5034533;28;20230;-95
2023/06/06 11:05:15;;;;;;;2.63;2.42;;;;;;;;;;5030275;28;20270;-95
2023/06/06 11:07:44;;;;;;;3.58;2.50;;;;;;;;;;5028598;28;20269;-96
2023/06/06 11:10:12;;;;;;;3.15;2.85;;;;;;;;;;5032228;28;20208;-96
2023/06/06 11:12:41;;;;;;;4.13;3.10;;;;;;;;;;5041059;28;20224;-95
2023/06/06 11:15:09;;;;;;;4.78;3.08;;;;;;;;;;5032705;28;20208;-95
2023/06/06 11:17:49;;;;;;;3.53;2.80;;;;;;;;;;5027475;28;20213;-96
2023/06/06 11:20:22;;;;;;;4.40;3.03;;;;;;;;;;5027693;28;20208;-95
2023/06/06 11:22:57;;;;;;;3.95;2.80;;;;;;;;;;5028090;28;20210;-96
2023/06/06 11:25:25;;;;;;;2.80;2.60;;;;;;;;;;5030081;28;20212;-96
2023/06/06 11:27:52;;;;;;;6.10;2.92;;;;;;;;;;5031768;28;20284;-94
2023/06/06 11:30:20;;;;;;;2.97;2.65;;;;;;;;;;5028691;28;20220;-96
2023/06/06 11:32:50;;;;;;;3.35;2.85;;;;;;;;;;5032216;28;20224;-95
2023/06/06 11:35:18;;;;;;;4.28;2.85;;;;;;;;;;5026933;28;20220;-96
2023/06/06 11:37:47;;;;;;;3.40;3.10;;;;;;;;;;5036395;28;20232;-96
2023/06/06 11:40:15;;;;;;;3.20;2.90;;;;;;;;;;5041543;28;20223;-96
2023/06/06 11:42:44;;;;;;;3.03;2.60;;;;;;;;;;5035619;28;20195;-96
2023/06/06 11:45:15;;;;;;;4.55;2.95;;;;;;;;;;5037625;28;20309;-94
2023/06/06 11:47:43;;;;;;;3.60;3.30;;;;;;;;;;5032474;28;20204;-96
2023/06/06 11:50:11;;;;;;;2.90;2.70;;;;;;;;;;5037022;28;20219;-95
2023/06/06 11:52:45;;;;;;;3.20;2.90;;;;;;;;;;5037900;28;20210;-96
2023/06/06 11:55:15;;;;;;;3.03;2.83;;;;;;;;;;5017210;28;20231;-96
2023/06/06 11:57:42;;;;;;;3.28;2.97;;;;;;;;;;5032927;28;20200;-96
2023/06/06 12:00:17;;;;;;;4.50;3.05;;;;;;;;;;5027718;28;20212;-96
2023/06/06 12:02:49;;;;;;;5.25;3.80;;;;;;;;;;5029277;28;20202;-96
2023/06/06 12:05:21;;;;;;;3.00;2.80;;;;;;;;;;5026050;28;20287;-96
2023/06/06 12:07:54;;;;;;;3.63;3.05;;;;;;;;;;5025188;28;20298;-96
2023/06/06 12:10:27;;;;;;;3.00;2.80;;;;;;;;;;5025142;28;20227;-96
2023/06/06 12:12:55;;;;;;;3.40;3.10;;;;;;;;;;5028286;28;20266;-96
2023/06/06 12:15:27;;;;;;;3.45;3.05;;;;;;;;;;5027237;28;20261;-95
2023/06/06 12:17:54;;;;;;;3.80;3.17;;;;;;;;;;5025688;28;20196;-96
2023/06/06 12:20:26;;;;;;;4.63;3.20;;;;;;;;;;5027008;28;20238;-95
2023/06/06 12:22:54;;;;;;;4.10;3.20;;;;;;;;;;5026019;28;20208;-96
2023/06/06 12:28:37;;;;;;;6.43;3.30;;;;;;;;;;5020261;28;20267;-96
2023/06/06 12:31:21;;;;;;;5.13;3.08;;;;;;;;;;5023398;28;20227;-96
2023/06/06 12:33:48;;;;;;;4.28;3.00;;;;;;;;;;5027767;28;20216;-96
2023/06/06 12:36:17;;;;;;;5.78;2.83;;;;;;;;;;5026422;28;20301;-96
2023/06/06 12:38:45;;;;;;;3.60;2.63;;;;;;;;;;5026266;28;20200;-96
2023/06/06 12:41:13;;;;;;;3.30;3.00;;;;;;;;;;5032393;28;20283;-96
2023/06/06 12:43:42;;;;;;;3.88;3.00;;;;;;;;;;5031085;28;20258;-95
2023/06/06 12:46:09;;;;;;;3.53;2.97;;;;;;;;;;5029393;28;20246;-96
2023/06/06 12:48:37;;;;;;;3.47;2.97;;;;;;;;;;5026882;28;20215;-96
2023/06/06 12:51:05;;;;;;;3.50;3.20;;;;;;;;;;5028910;28;20300;-96
2023/06/06 12:53:34;;;;;;;3.00;2.80;;;;;;;;;;5027133;28;20192;-96
2023/06/06 12:56:02;;;;;;;3.45;2.72;;;;;;;;;;5030384;28;20196;-95
2023/06/06 12:58:29;;;;;;;5.72;3.25;;;;;;;;;;5030167;28;20204;-96
2023/06/06 13:00:59;;;;;;;3.25;2.83;;;;;;;;;;5030518;28;20208;-96
2023/06/06 13:03:27;;;;;;;3.08;2.72;;;;;;;;;;5026556;28;20231;-96
2023/06/06 13:05:56;;;;;;;3.47;3.08;;;;;;;;;;5031319;28;20211;-96
2023/06/06 13:08:25;;;;;;;3.97;3.22;;;;;;;;;;5026119;28;20243;-96
2023/06/06 13:10:53;;;;;;;6.60;3.03;;;;;;;;;;5026919;28;20205;-96
2023/06/06 13:13:35;;;;;;;3.95;2.60;;;;;;;;;;5032857;28;20197;-96
2023/06/06 13:16:04;;;;;;;3.00;2.80;;;;;;;;;;5033432;28;20207;-96
2023/06/06 13:18:31;;;;;;;3.33;2.92;;;;;;;;;;5027466;28;20215;-94
2023/06/06 13:21:01;;;;;;;4.25;3.17;;;;;;;;;;5024840;28;20258;-95
2023/06/06 13:23:29;;;;;;;3.63;3.10;;;;;;;;;;5025299;28;20220;-95
2023/06/06 13:25:56;;;;;;;3.50;2.65;;;;;;;;;;5028037;28;20211;-95
2023/06/06 13:28:23;;;;;;;3.25;2.88;;;;;;;;;;5029172;28;20212;-95
2023/06/06 13:30:51;;;;;;;6.22;3.03;;;;;;;;;;5026769;28;20236;-95
2023/06/06 13:33:20;;;;;;;2.97;2.75;;;;;;;;;;5025154;28;20210;-95
2023/06/06 13:35:48;;;;;;;3.22;2.72;;;;;;;;;;5022859;28;20291;-94
2023/06/06 13:38:18;;;;;;;3.58;2.75;;;;;;;;;;5030826;28;20210;-94
2023/06/06 13:40:45;;;;;;;3.28;2.97;;;;;;;;;;5032415;28;20208;-95
2023/06/06 13:43:13;;;;;;;3.50;3.20;;;;;;;;;;5030477;28;20314;-95
2023/06/06 13:45:40;;;;;;;5.32;2.75;;;;;;;;;;5033475;28;20204;-95
2023/06/06 13:48:08;;;;;;;4.13;3.22;;;;;;;;;;5032886;28;20338;-95
2023/06/06 13:50:36;;;;;;;3.50;3.20;;;;;;;;;;5028607;28;20216;-96
2023/06/06 13:53:04;;;;;;;3.35;3.05;;;;;;;;;;5028417;28;20215;-96
2023/06/06 13:55:33;;;;;;;3.40;2.88;;;;;;;;;;5031177;28;20204;-95
2023/06/06 13:58:03;;;;;;;3.03;2.78;;;;;;;;;;5030841;28;20220;-94
2023/06/06 14:00:31;;;;;;;3.45;2.80;;;;;;;;;;5030066;28;20220;-95
2023/06/06 14:02:59;;;;;;;4.10;3.00;;;;;;;;;;5031305;28;20207;-95
2023/06/06 14:05:27;;;;;;;4.28;2.92;;;;;;;;;;5031589;28;20218;-95
2023/06/06 14:07:56;;;;;;;3.20;2.90;;;;;;;;;;5027221;28;20314;-95
2023/06/06 14:10:23;;;;;;;5.00;3.17;;;;;;;;;;5025162;28;20214;-94
2023/06/06 14:12:50;;;;;;;3.50;3.20;;;;;;;;;;5026220;28;20222;-96
2023/06/06 14:15:21;;;;;;;3.40;3.10;;;;;;;;;;5023938;28;20258;-95
2023/06/06 14:17:48;;;;;;;3.22;3.03;;;;;;;;;;5031211;28;20214;-95
2023/06/06 14:20:21;;;;;;;6.78;3.00;;;;;;;;;;5018830;28;20209;-96
2023/06/06 14:22:49;;;;;;;3.03;2.72;;;;;;;;;;5023896;28;20276;-96
2023/06/06 14:25:21;;;;;;;3.47;2.72;;;;;;;;;;5023380;28;20319;-96
2023/06/06 14:27:49;;;;;;;5.03;3.10;;;;;;;;;;5024742;28;20204;-96
2023/06/06 14:30:17;;;;;;;3.25;2.80;;;;;;;;;;5022803;28;20216;-96
2023/06/06 14:32:45;;;;;;;3.17;2.92;;;;;;;;;;5025855;28;20204;-96
2023/06/06 14:35:12;;;;;;;3.60;2.70;;;;;;;;;;5021415;28;20210;-96
2023/06/06 14:37:40;;;;;;;3.17;2.92;;;;;;;;;;5023338;28;20255;-96
2023/06/06 14:40:09;;;;;;;4.55;3.25;;;;;;;;;;5027037;28;20254;-96
2023/06/06 14:42:38;;;;;;;3.33;3.03;;;;;;;;;;5027013;28;20212;-95
2023/06/06 14:45:06;;;;;;;3.47;3.17;;;;;;;;;;5031638;28;20227;-96
2023/06/06 14:47:35;;;;;;;4.25;2.83;;;;;;;;;;5031997;28;20208;-96
2023/06/06 14:50:03;;;;;;;2.90;2.70;;;;;;;;;;5023499;28;20209;-96
2023/06/06 14:52:31;;;;;;;2.67;2.50;;;;;;;;;;5031359;28;20212;-95
2023/06/06 14:54:58;;;;;;;3.22;2.92;;;;;;;;;;5040620;28;20227;-95
2023/06/06 14:57:26;;;;;;;3.88;3.13;;;;;;;;;;5033905;28;20231;-95